Time;durP1;ratioP1;P1;durP2;ratioP2;P2;SDS_P1;SDS_P2;PMS_P1;PMS_P2;Temp;Humidity;BMP_temperature;BMP_pressure;BME280_temperature;BME280_humidity;BME280_pressure;Samples;Min_cycle;Max_cycle;Signal;HPM_P1;HPM_P2
2024/04/18 00:03:59;;;;;;;;;;;;;;;2.42;100.00;95065.34;10817858;27;3126;-68
2024/04/18 00:09:04;;;;;;;;;;;;;;;2.24;100.00;95070.06;10813937;27;2836;-69
2024/04/18 00:14:08;;;;;;;;;;;;;;;2.13;100.00;95059.25;10807497;27;3133;-69
2024/04/18 00:19:12;;;;;;;;;;;;;;;2.08;100.00;95064.47;10814752;27;3255;-69
2024/04/18 00:24:16;;;;;;;;;;;;;;;1.99;100.00;95068.56;10810204;27;3126;-69
2024/04/18 00:29:21;;;;;;;;;;;;;;;1.83;100.00;95064.78;10801436;27;3260;-69
2024/04/18 00:34:25;;;;;;;;;;;;;;;1.75;100.00;95062.53;10812137;27;3232;-70
2024/04/18 00:39:29;;;;;;;;;;;;;;;1.88;100.00;95066.75;10809841;27;3165;-69
2024/04/18 00:44:34;;;;;;;;;;;;;;;1.89;100.00;95065.69;10809217;27;3023;-68
2024/04/18 00:49:38;;;;;;;;;;;;;;;1.87;100.00;95067.78;10816101;27;3177;-68
2024/04/18 00:54:42;;;;;;;;;;;;;;;1.86;100.00;95067.00;10822042;27;3168;-69
2024/04/18 00:59:47;;;;;;;;;;;;;;;1.93;100.00;95072.16;10811060;27;3118;-70
2024/04/18 01:04:51;;;;;;;;;;;;;;;2.07;100.00;95068.16;10811855;27;3318;-70
2024/04/18 01:09:55;;;;;;;;;;;;;;;2.19;100.00;95067.31;10787906;27;3145;-71
2024/04/18 01:14:59;;;;;;;;;;;;;;;2.28;100.00;95068.53;10806653;27;3121;-69
2024/04/18 01:20:03;;;;;;;;;;;;;;;2.21;100.00;95067.88;10810240;27;3232;-70
2024/04/18 01:25:10;;;;;;;;;;;;;;;2.25;100.00;95072.47;10805258;27;3104;-69
2024/04/18 01:30:14;;;;;;;;;;;;;;;2.21;100.00;95073.97;10811337;27;3239;-70
2024/04/18 01:35:19;;;;;;;;;;;;;;;2.10;100.00;95072.19;10803290;27;3232;-73
2024/04/18 01:40:23;;;;;;;;;;;;;;;2.13;100.00;95069.06;10810501;27;3176;-70
2024/04/18 01:45:27;;;;;;;;;;;;;;;2.06;100.00;95069.22;10809892;27;3200;-70
2024/04/18 01:50:32;;;;;;;;;;;;;;;2.05;100.00;95070.25;10779595;27;3022;-69
2024/04/18 01:55:36;;;;;;;;;;;;;;;2.19;100.00;95075.28;10808654;27;3220;-70
2024/04/18 02:00:40;;;;;;;;;;;;;;;2.20;100.00;95068.91;10810104;27;3247;-69
2024/04/18 02:05:45;;;;;;;;;;;;;;;2.21;100.00;95067.88;10803701;27;3119;-71
2024/04/18 02:10:49;;;;;;;;;;;;;;;2.26;100.00;95075.94;10809123;27;3149;-70
2024/04/18 02:15:54;;;;;;;;;;;;;;;2.33;100.00;95072.06;10806765;27;3256;-69
2024/04/18 02:20:58;;;;;;;;;;;;;;;2.36;100.00;95078.78;10808865;27;3137;-69
2024/04/18 02:26:04;;;;;;;;;;;;;;;2.45;100.00;95077.31;10805479;27;3129;-69
2024/04/18 02:31:08;;;;;;;;;;;;;;;2.52;100.00;95085.94;10803494;27;3125;-70
2024/04/18 02:36:13;;;;;;;;;;;;;;;2.58;100.00;95084.97;10803571;27;3252;-70
2024/04/18 02:41:17;;;;;;;;;;;;;;;2.49;100.00;95072.34;10807805;27;3113;-69
2024/04/18 02:46:21;;;;;;;;;;;;;;;2.37;100.00;95080.38;10806765;27;3106;-69
2024/04/18 02:51:26;;;;;;;;;;;;;;;2.31;100.00;95073.38;10814741;27;3138;-69
2024/04/18 02:56:30;;;;;;;;;;;;;;;2.19;100.00;95086.69;10799777;27;3264;-72
2024/04/18 03:01:35;;;;;;;;;;;;;;;2.26;100.00;95087.34;10801797;27;3137;-71
2024/04/18 03:06:39;;;;;;;;;;;;;;;2.19;100.00;95088.53;10807612;27;3042;-70
2024/04/18 03:11:44;;;;;;;;;;;;;;;2.16;100.00;95087.97;10801248;27;3029;-69
2024/04/18 03:16:49;;;;;;;;;;;;;;;2.30;100.00;95083.19;10809162;27;3227;-69
2024/04/18 03:21:53;;;;;;;;;;;;;;;2.09;100.00;95087.28;10806507;27;3141;-70
2024/04/18 03:26:58;;;;;;;;;;;;;;;2.11;100.00;95089.72;10812299;27;3233;-71
2024/04/18 03:32:03;;;;;;;;;;;;;;;2.03;100.00;95095.38;10805487;27;3246;-71
2024/04/18 03:37:07;;;;;;;;;;;;;;;2.05;100.00;95101.28;10811041;27;3353;-71
2024/04/18 03:42:12;;;;;;;;;;;;;;;1.89;100.00;95098.31;10806398;27;2892;-70
2024/04/18 03:47:16;;;;;;;;;;;;;;;1.90;100.00;95101.75;10810222;27;3255;-71
2024/04/18 03:52:20;;;;;;;;;;;;;;;1.84;100.00;95100.06;10814040;27;3157;-71
2024/04/18 03:57:24;;;;;;;;;;;;;;;2.00;100.00;95109.13;10810201;27;3018;-71
2024/04/18 04:02:29;;;;;;;;;;;;;;;1.93;100.00;95116.41;10815352;27;3232;-70
2024/04/18 04:07:33;;;;;;;;;;;;;;;1.93;100.00;95119.06;10810142;27;3251;-70
2024/04/18 04:12:39;;;;;;;;;;;;;;;1.91;100.00;95121.94;10783176;27;3116;-71
2024/04/18 04:17:46;;;;;;;;;;;;;;;1.90;100.00;95123.78;10808541;27;3165;-70
2024/04/18 04:22:50;;;;;;;;;;;;;;;2.07;100.00;95137.09;10806086;27;3129;-70
2024/04/18 04:27:54;;;;;;;;;;;;;;;2.23;100.00;95129.41;10807710;27;3260;-69
2024/04/18 04:32:59;;;;;;;;;;;;;;;2.23;100.00;95134.72;10811622;27;3235;-70
2024/04/18 04:38:03;;;;;;;;;;;;;;;2.31;100.00;95148.44;10809417;27;3183;-70
2024/04/18 04:43:08;;;;;;;;;;;;;;;2.32;100.00;95152.69;10809901;27;3212;-70
2024/04/18 04:48:12;;;;;;;;;;;;;;;2.37;100.00;95157.28;10804125;27;3242;-70
2024/04/18 04:53:17;;;;;;;;;;;;;;;2.51;100.00;95161.25;10815126;27;3229;-70
2024/04/18 04:58:21;;;;;;;;;;;;;;;2.68;100.00;95163.97;10806743;27;3117;-70
2024/04/18 05:03:26;;;;;;;;;;;;;;;2.72;100.00;95162.41;10779490;27;3234;-71
2024/04/18 05:08:30;;;;;;;;;;;;;;;2.68;100.00;95172.72;10805875;27;3378;-70
2024/04/18 05:13:34;;;;;;;;;;;;;;;2.60;100.00;95180.25;10810519;27;3254;-70
2024/04/18 05:18:39;;;;;;;;;;;;;;;2.71;100.00;95180.19;10808093;27;2950;-70
2024/04/18 05:23:43;;;;;;;;;;;;;;;2.98;100.00;95185.69;10810419;27;3125;-72
2024/04/18 05:34:05;;;;;;;;;;;;;;;3.00;100.00;95188.13;10806212;27;3236;-74
2024/04/18 05:39:10;;;;;;;;;;;;;;;3.08;100.00;95195.69;10813065;27;3244;-71
2024/04/18 05:44:14;;;;;;;;;;;;;;;3.00;100.00;95193.44;10800828;27;3227;-71
2024/04/18 05:49:21;;;;;;;;;;;;;;;3.02;100.00;95201.16;10776938;27;3161;-72
2024/04/18 05:54:25;;;;;;;;;;;;;;;2.94;100.00;95220.94;10811376;27;3054;-71
2024/04/18 05:59:29;;;;;;;;;;;;;;;2.81;100.00;95221.25;10801592;27;3150;-74
2024/04/18 06:04:34;;;;;;;;;;;;;;;2.60;100.00;95234.13;10802946;27;3113;-76
2024/04/18 06:09:38;;;;;;;;;;;;;;;2.31;100.00;95237.81;10782946;27;3148;-74
2024/04/18 06:14:43;;;;;;;;;;;;;;;2.11;100.00;95240.84;10811622;27;3105;-75
2024/04/18 06:19:47;;;;;;;;;;;;;;;1.93;100.00;95248.94;10820806;27;3026;-77
2024/04/18 06:24:52;;;;;;;;;;;;;;;1.73;100.00;95246.66;10807013;27;3320;-72
2024/04/18 06:29:57;;;;;;;;;;;;;;;1.83;100.00;95250.31;10804708;27;3223;-74
2024/04/18 06:35:01;;;;;;;;;;;;;;;2.08;100.00;95252.69;10806863;27;3122;-75
2024/04/18 06:40:06;;;;;;;;;;;;;;;2.26;100.00;95262.38;10808614;27;3157;-73
2024/04/18 06:45:12;;;;;;;;;;;;;;;2.45;100.00;95276.28;10799764;27;3265;-76
2024/04/18 06:50:17;;;;;;;;;;;;;;;2.79;100.00;95271.88;10806125;27;2957;-71
2024/04/18 06:55:21;;;;;;;;;;;;;;;2.96;100.00;95275.41;10799095;27;3137;-76
2024/04/18 07:00:27;;;;;;;;;;;;;;;3.32;100.00;95275.25;10799715;27;3133;-76
2024/04/18 07:05:31;;;;;;;;;;;;;;;3.52;100.00;95270.25;10808063;27;2989;-75
2024/04/18 07:10:35;;;;;;;;;;;;;;;3.60;100.00;95283.13;10799878;27;3340;-74
2024/04/18 07:15:41;;;;;;;;;;;;;;;3.89;100.00;95283.06;10803976;27;3250;-76
2024/04/18 07:20:46;;;;;;;;;;;;;;;4.08;100.00;95284.41;10805436;27;3145;-75
2024/04/18 07:25:50;;;;;;;;;;;;;;;4.14;100.00;95290.59;10778636;27;3067;-76
2024/04/18 07:30:54;;;;;;;;;;;;;;;4.73;100.00;95294.28;10806033;27;3121;-76
2024/04/18 07:35:59;;;;;;;;;;;;;;;5.06;100.00;95295.97;10811705;27;3224;-75
2024/04/18 07:41:03;;;;;;;;;;;;;;;5.16;100.00;95289.97;10807908;27;3154;-75
2024/04/18 07:46:08;;;;;;;;;;;;;;;5.48;100.00;95295.34;10805943;27;3218;-75
2024/04/18 07:51:13;;;;;;;;;;;;;;;5.70;100.00;95305.91;10815574;27;3132;-76
2024/04/18 07:56:17;;;;;;;;;;;;;;;6.03;100.00;95302.19;10814658;27;3051;-74
2024/04/18 08:01:22;;;;;;;;;;;;;;;6.91;100.00;95305.09;10817738;27;3144;-73
2024/04/18 08:06:29;;;;;;;;;;;;;;;6.71;100.00;95299.66;10813999;27;3172;-73
2024/04/18 08:11:38;;;;;;;;;;;;;;;7.29;100.00;95295.03;10816264;27;3153;-75
2024/04/18 08:17:02;;;;;;;;;;;;;;;7.75;100.00;95303.91;10810427;27;2875;-73
2024/04/18 08:22:07;;;;;;;;;;;;;;;8.09;100.00;95304.22;10817471;27;3155;-72
2024/04/18 08:27:11;;;;;;;;;;;;;;;7.75;100.00;95305.78;10810628;27;3252;-72
2024/04/18 08:32:15;;;;;;;;;;;;;;;7.38;100.00;95309.50;10811634;27;3014;-71
2024/04/18 08:37:20;;;;;;;;;;;;;;;6.56;100.00;95323.63;10806648;27;3138;-72
2024/04/18 08:42:25;;;;;;;;;;;;;;;6.03;100.00;95330.75;10776436;27;3155;-72
2024/04/18 08:47:31;;;;;;;;;;;;;;;6.04;100.00;95338.50;10817034;27;3085;-72
2024/04/18 08:52:38;;;;;;;;;;;;;;;6.65;100.00;95338.09;10816014;27;3033;-71
2024/04/18 08:57:43;;;;;;;;;;;;;;;6.20;100.00;95336.75;10809483;27;3133;-71
2024/04/18 09:02:47;;;;;;;;;;;;;;;6.42;100.00;95344.63;10807679;27;3168;-72
2024/04/18 09:07:51;;;;;;;;;;;;;;;6.64;100.00;95331.16;10783083;27;3224;-71
2024/04/18 09:12:56;;;;;;;;;;;;;;;6.18;100.00;95345.03;10805336;27;3148;-74
2024/04/18 09:18:04;;;;;;;;;;;;;;;5.84;100.00;95351.63;10806435;27;3196;-72
2024/04/18 09:23:09;;;;;;;;;;;;;;;5.52;100.00;95352.41;10810831;27;3208;-73
2024/04/18 09:28:13;;;;;;;;;;;;;;;6.02;100.00;95361.16;10808726;27;3140;-73
2024/04/18 09:33:18;;;;;;;;;;;;;;;6.30;100.00;95352.84;10804003;27;3054;-72
2024/04/18 09:38:23;;;;;;;;;;;;;;;6.17;100.00;95369.28;10809467;27;3251;-72
2024/04/18 09:43:27;;;;;;;;;;;;;;;5.85;100.00;95359.41;10811997;27;3340;-74
2024/04/18 09:48:31;;;;;;;;;;;;;;;5.27;100.00;95378.81;10813734;27;3248;-73
2024/04/18 09:53:36;;;;;;;;;;;;;;;5.09;100.00;95386.09;10816007;27;3113;-74
2024/04/18 09:58:40;;;;;;;;;;;;;;;4.53;100.00;95390.66;10807259;27;3219;-73
2024/04/18 10:03:44;;;;;;;;;;;;;;;4.99;100.00;95396.59;10809597;27;3144;-74
2024/04/18 10:08:50;;;;;;;;;;;;;;;5.48;100.00;95395.84;10809097;27;3144;-74
2024/04/18 10:13:55;;;;;;;;;;;;;;;4.82;100.00;95407.28;10806073;27;3119;-68
2024/04/18 10:19:00;;;;;;;;;;;;;;;3.52;100.00;95419.06;10810763;27;3006;-70
2024/04/18 10:24:04;;;;;;;;;;;;;;;3.62;100.00;95413.91;10817575;27;3231;-67
2024/04/18 10:29:09;;;;;;;;;;;;;;;3.91;100.00;95413.91;10810537;27;3155;-68
2024/04/18 10:34:13;;;;;;;;;;;;;;;5.07;100.00;95414.81;10811836;27;3219;-70
2024/04/18 10:39:17;;;;;;;;;;;;;;;5.53;100.00;95406.53;10802567;27;3132;-69
2024/04/18 10:44:24;;;;;;;;;;;;;;;6.03;100.00;95397.44;10801444;27;3104;-69
2024/04/18 10:49:29;;;;;;;;;;;;;;;6.34;100.00;95385.97;10805891;27;3283;-69
2024/04/18 10:54:33;;;;;;;;;;;;;;;7.02;100.00;95389.59;10810223;27;3022;-69
2024/04/18 10:59:38;;;;;;;;;;;;;;;7.37;100.00;95393.44;10804137;27;3047;-71
2024/04/18 11:04:42;;;;;;;;;;;;;;;7.18;100.00;95395.78;10806586;27;3030;-70
2024/04/18 11:09:47;;;;;;;;;;;;;;;7.15;100.00;95395.50;10802666;27;2969;-71
2024/04/18 11:14:53;;;;;;;;;;;;;;;6.99;100.00;95392.75;10798321;27;2996;-69
2024/04/18 11:19:57;;;;;;;;;;;;;;;7.45;100.00;95400.19;10804643;27;3113;-70
2024/04/18 11:25:02;;;;;;;;;;;;;;;7.36;100.00;95391.03;10811581;27;2981;-70
2024/04/18 11:30:06;;;;;;;;;;;;;;;7.23;100.00;95405.69;10803197;27;3530;-69
2024/04/18 11:35:10;;;;;;;;;;;;;;;7.64;100.00;95395.16;10802967;27;3237;-68
2024/04/18 11:40:20;;;;;;;;;;;;;;;7.91;100.00;95397.63;10809412;27;2962;-72
2024/04/18 11:45:25;;;;;;;;;;;;;;;7.96;100.00;95402.97;10770829;27;3252;-70
2024/04/18 11:50:29;;;;;;;;;;;;;;;7.21;100.00;95405.97;10802281;27;3216;-69
2024/04/18 11:55:33;;;;;;;;;;;;;;;7.52;100.00;95406.88;10804314;27;3124;-69
2024/04/18 12:00:37;;;;;;;;;;;;;;;8.12;100.00;95400.03;10808748;27;3136;-69
2024/04/18 12:05:42;;;;;;;;;;;;;;;7.85;100.00;95397.59;10808812;27;3132;-69
2024/04/18 12:10:47;;;;;;;;;;;;;;;8.92;100.00;95391.44;10810924;27;3174;-68
2024/04/18 12:15:51;;;;;;;;;;;;;;;9.28;100.00;95400.16;10814673;27;2962;-70
2024/04/18 12:20:56;;;;;;;;;;;;;;;9.24;100.00;95395.63;10818871;27;2998;-71
2024/04/18 12:26:00;;;;;;;;;;;;;;;9.63;100.00;95406.44;10811766;27;3018;-70
2024/04/18 12:31:04;;;;;;;;;;;;;;;10.83;100.00;95392.41;10809458;27;3149;-68
2024/04/18 12:36:11;;;;;;;;;;;;;;;10.55;100.00;95402.06;10815124;27;3156;-70
2024/04/18 12:41:16;;;;;;;;;;;;;;;9.41;100.00;95404.13;10811604;27;3153;-71
2024/04/18 12:46:21;;;;;;;;;;;;;;;7.58;100.00;95429.91;10807763;27;3252;-72
2024/04/18 12:51:27;;;;;;;;;;;;;;;6.67;100.00;95445.47;10810925;27;3211;-69
2024/04/18 12:56:31;;;;;;;;;;;;;;;6.59;100.00;95441.41;10811664;27;3137;-69
2024/04/18 13:01:36;;;;;;;;;;;;;;;6.57;100.00;95448.09;10779900;27;3144;-70
2024/04/18 13:06:40;;;;;;;;;;;;;;;5.90;100.00;95468.81;10810718;27;3165;-70
2024/04/18 13:11:51;;;;;;;;;;;;;;;5.30;100.00;95477.72;10810246;27;3010;-69
2024/04/18 13:16:58;;;;;;;;;;;;;;;5.33;100.00;95471.88;10809651;27;3089;-71
2024/04/18 13:22:03;;;;;;;;;;;;;;;5.51;100.00;95472.63;10810260;27;2938;-70
2024/04/18 13:27:07;;;;;;;;;;;;;;;5.60;100.00;95468.50;10805800;27;3129;-70
2024/04/18 13:32:11;;;;;;;;;;;;;;;5.81;100.00;95470.31;10813518;27;3114;-69
2024/04/18 13:37:18;;;;;;;;;;;;;;;6.25;100.00;95462.25;10805495;27;3009;-70
2024/04/18 13:42:22;;;;;;;;;;;;;;;6.87;100.00;95458.97;10809339;27;3066;-71
2024/04/18 13:47:26;;;;;;;;;;;;;;;7.23;100.00;95451.94;10807867;27;3141;-70
2024/04/18 13:52:31;;;;;;;;;;;;;;;7.29;100.00;95444.75;10812926;27;3149;-70
2024/04/18 13:57:35;;;;;;;;;;;;;;;7.92;100.00;95442.03;10812310;27;2868;-70
2024/04/18 14:02:39;;;;;;;;;;;;;;;8.25;100.00;95424.66;10784426;27;3266;-70
2024/04/18 14:07:44;;;;;;;;;;;;;;;8.71;100.00;95424.69;10809186;27;3180;-70
2024/04/18 14:12:48;;;;;;;;;;;;;;;8.83;100.00;95447.44;10780421;27;3165;-76
2024/04/18 14:23:13;;;;;;;;;;;;;;;9.81;100.00;95439.91;10817813;27;3124;-70
2024/04/18 14:28:18;;;;;;;;;;;;;;;10.51;100.00;95454.00;10810952;27;3049;-73
2024/04/18 14:33:34;;;;;;;;;;;;;;;10.74;100.00;95455.94;10819436;27;3161;-71
2024/04/18 14:38:38;;;;;;;;;;;;;;;8.05;100.00;95490.50;10786258;27;3132;-72
2024/04/18 14:43:43;;;;;;;;;;;;;;;5.95;100.00;95505.44;10814908;27;3141;-73
2024/04/18 14:48:47;;;;;;;;;;;;;;;5.51;100.00;95516.09;10810895;27;3222;-72
2024/04/18 14:53:51;;;;;;;;;;;;;;;4.49;100.00;95535.13;10816365;27;3140;-72
2024/04/18 14:58:56;;;;;;;;;;;;;;;3.73;100.00;95553.97;10815063;27;3538;-73
2024/04/18 15:04:01;;;;;;;;;;;;;;;3.47;100.00;95554.50;10810984;27;3137;-73
2024/04/18 15:09:07;;;;;;;;;;;;;;;3.57;100.00;95552.06;10816084;27;3219;-73
2024/04/18 15:14:11;;;;;;;;;;;;;;;3.95;100.00;95550.69;10817549;27;2887;-72
2024/04/18 15:19:18;;;;;;;;;;;;;;;4.44;100.00;95570.44;10816153;27;3114;-72
2024/04/18 15:24:24;;;;;;;;;;;;;;;4.70;100.00;95585.00;10812696;27;2982;-74
2024/04/18 15:29:28;;;;;;;;;;;;;;;4.90;100.00;95595.19;10814972;27;3059;-71
2024/04/18 15:34:33;;;;;;;;;;;;;;;4.75;100.00;95603.72;10818483;27;3125;-72
2024/04/18 15:39:38;;;;;;;;;;;;;;;4.79;100.00;95604.84;10807537;27;3054;-74
2024/04/18 15:44:43;;;;;;;;;;;;;;;5.01;100.00;95609.47;10817516;27;3046;-71
2024/04/18 15:49:47;;;;;;;;;;;;;;;5.10;100.00;95600.84;10817358;27;3030;-70
2024/04/18 15:54:52;;;;;;;;;;;;;;;5.25;100.00;95615.44;10824794;27;2985;-70
2024/04/18 16:00:17;;;;;;;;;;;;;;;4.99;100.00;95619.56;10821521;27;3287;-72
2024/04/18 16:05:23;;;;;;;;;;;;;;;4.77;100.00;95625.59;10826076;27;3148;-72
2024/04/18 16:10:27;;;;;;;;;;;;;;;4.38;100.00;95639.78;10820745;27;3476;-71
2024/04/18 16:15:31;;;;;;;;;;;;;;;3.94;100.00;95636.78;10821266;27;3141;-75
2024/04/18 16:20:35;;;;;;;;;;;;;;;4.16;100.00;95632.47;10818526;27;3201;-72
2024/04/18 16:25:42;;;;;;;;;;;;;;;4.72;100.00;95638.03;10821017;27;3162;-72
2024/04/18 16:30:47;;;;;;;;;;;;;;;4.83;100.00;95643.25;10823107;27;2887;-71
2024/04/18 16:35:52;;;;;;;;;;;;;;;4.80;100.00;95651.75;10814004;27;3101;-73
2024/04/18 16:40:56;;;;;;;;;;;;;;;5.23;100.00;95650.31;10815357;27;3104;-71
2024/04/18 16:46:01;;;;;;;;;;;;;;;5.46;100.00;95648.53;10824063;27;3231;-72
2024/04/18 16:51:05;;;;;;;;;;;;;;;5.63;100.00;95652.78;10826868;27;3034;-71
2024/04/18 16:56:09;;;;;;;;;;;;;;;5.65;100.00;95660.53;10818337;27;3226;-70
2024/04/18 17:01:14;;;;;;;;;;;;;;;5.41;100.00;95660.75;10813793;27;3152;-73
2024/04/18 17:06:18;;;;;;;;;;;;;;;5.40;100.00;95659.09;10818518;27;3274;-72
2024/04/18 17:11:24;;;;;;;;;;;;;;;5.51;100.00;95667.25;10836556;27;1876;-70
2024/04/18 17:16:29;;;;;;;;;;;;;;;5.69;100.00;95664.34;10826062;27;1705;-69
2024/04/18 17:21:35;;;;;;;;;;;;;;;5.58;100.00;95673.22;10820854;27;1816;-72
2024/04/18 17:26:40;;;;;;;;;;;;;;;5.29;100.00;95677.88;10852307;27;1780;-73
2024/04/18 17:31:44;;;;;;;;;;;;;;;4.97;100.00;95685.59;10844278;27;1854;-72
2024/04/18 17:36:49;;;;;;;;;;;;;;;4.81;100.00;95697.81;10837846;27;1924;-72
2024/04/18 17:41:55;;;;;;;;;;;;;;;4.59;100.00;95700.34;10821552;27;1812;-73
2024/04/18 17:47:00;;;;;;;;;;;;;;;4.36;100.00;95695.91;10844420;27;3144;-70
2024/04/18 17:57:39;;;;;;;;;;;;;;;4.11;100.00;95714.81;10900181;22;2111;-70
2024/04/18 18:02:43;;;;;;;;;;;;;;;3.94;100.00;95725.38;10900152;27;1978;-70
2024/04/18 18:07:48;;;;;;;;;;;;;;;3.78;100.00;95731.41;10925605;27;1866;-71
2024/04/18 18:12:52;;;;;;;;;;;;;;;3.70;100.00;95740.53;10908809;27;2005;-72
2024/04/18 18:17:57;;;;;;;;;;;;;;;3.57;100.00;95746.09;10909841;27;2017;-71
2024/04/18 18:23:01;;;;;;;;;;;;;;;3.53;100.00;95756.34;10904781;27;1909;-70
2024/04/18 18:28:06;;;;;;;;;;;;;;;3.37;100.00;95753.53;10900574;27;1837;-71
2024/04/18 18:33:10;;;;;;;;;;;;;;;3.33;100.00;95760.38;10911824;27;1996;-70
2024/04/18 18:38:15;;;;;;;;;;;;;;;3.35;100.00;95771.56;10915005;27;1939;-72
2024/04/18 18:43:19;;;;;;;;;;;;;;;3.33;100.00;95784.28;10922417;27;3684;-72
2024/04/18 18:48:23;;;;;;;;;;;;;;;3.35;100.00;95790.97;10909877;27;1949;-69
2024/04/18 18:53:28;;;;;;;;;;;;;;;3.34;100.00;95791.22;10877477;26;2266;-71
2024/04/18 18:58:33;;;;;;;;;;;;;;;3.35;100.00;95808.78;10890248;27;1776;-74
2024/04/18 19:03:37;;;;;;;;;;;;;;;3.37;100.00;95809.34;10888543;27;1835;-72
2024/04/18 19:08:42;;;;;;;;;;;;;;;3.40;100.00;95814.22;10901190;27;1905;-70
2024/04/18 19:13:46;;;;;;;;;;;;;;;3.50;100.00;95830.44;10908598;27;1857;-71
2024/04/18 19:18:51;;;;;;;;;;;;;;;3.50;100.00;95825.91;10873887;27;3508;-70
2024/04/18 19:23:56;;;;;;;;;;;;;;;3.56;100.00;95824.19;10905615;27;1965;-69
2024/04/18 19:29:00;;;;;;;;;;;;;;;3.65;100.00;95828.13;10895134;27;1884;-71
2024/04/18 19:34:05;;;;;;;;;;;;;;;3.61;100.00;95824.31;10896455;27;2072;-71
2024/04/18 19:39:10;;;;;;;;;;;;;;;3.62;100.00;95833.91;10902696;27;1927;-70
2024/04/18 19:44:14;;;;;;;;;;;;;;;3.59;100.00;95839.69;10902419;27;1881;-71
2024/04/18 19:49:18;;;;;;;;;;;;;;;3.52;100.00;95828.34;10900726;27;1966;-70
2024/04/18 19:54:23;;;;;;;;;;;;;;;3.50;100.00;95844.53;10899419;27;1852;-70
2024/04/18 19:59:27;;;;;;;;;;;;;;;3.51;100.00;95848.00;10896853;27;1791;-70
2024/04/18 20:04:31;;;;;;;;;;;;;;;3.64;100.00;95847.78;10916506;27;3444;-71
2024/04/18 20:09:36;;;;;;;;;;;;;;;3.78;100.00;95843.88;10902491;27;1837;-72
2024/04/18 20:14:41;;;;;;;;;;;;;;;3.81;100.00;95842.59;10904674;27;1925;-74
2024/04/18 20:19:45;;;;;;;;;;;;;;;3.71;100.00;95848.50;10920785;27;2006;-71
2024/04/18 20:24:49;;;;;;;;;;;;;;;3.65;100.00;95840.63;10908914;27;1820;-73
2024/04/18 20:29:55;;;;;;;;;;;;;;;3.58;100.00;95847.91;10863631;27;3259;-72
2024/04/18 20:34:59;;;;;;;;;;;;;;;3.54;100.00;95850.19;10892663;27;3131;-71
2024/04/18 20:40:03;;;;;;;;;;;;;;;3.49;100.00;95850.03;10890930;27;3013;-70
2024/04/18 20:45:08;;;;;;;;;;;;;;;3.39;100.00;95847.16;10893093;27;3676;-72
2024/04/18 20:50:12;;;;;;;;;;;;;;;3.17;100.00;95850.28;10890019;27;2885;-69
2024/04/18 20:55:17;;;;;;;;;;;;;;;3.01;100.00;95853.56;10893243;27;3018;-69
2024/04/18 21:00:21;;;;;;;;;;;;;;;2.90;100.00;95846.34;10883905;27;3093;-70
2024/04/18 21:05:32;;;;;;;;;;;;;;;2.82;100.00;95852.78;10851038;27;3231;-69
2024/04/18 21:10:36;;;;;;;;;;;;;;;2.75;100.00;95845.94;10884604;27;3119;-70
2024/04/18 21:15:40;;;;;;;;;;;;;;;2.63;100.00;95851.19;10889394;27;2496;-70
2024/04/18 21:20:45;;;;;;;;;;;;;;;2.55;100.00;95854.94;10891296;27;3239;-70
2024/04/18 21:25:49;;;;;;;;;;;;;;;2.48;100.00;95858.69;10891610;27;3104;-71
2024/04/18 21:30:54;;;;;;;;;;;;;;;2.38;100.00;95853.91;10887493;27;3022;-71
2024/04/18 21:35:59;;;;;;;;;;;;;;;2.37;100.00;95873.50;10889472;27;3559;-72
2024/04/18 21:41:03;;;;;;;;;;;;;;;2.41;100.00;95869.38;10884092;27;3113;-71
2024/04/18 21:46:07;;;;;;;;;;;;;;;2.45;100.00;95870.56;10885010;27;3134;-70
2024/04/18 21:51:13;;;;;;;;;;;;;;;2.54;100.00;95874.53;10886355;27;3247;-71
2024/04/18 21:56:18;;;;;;;;;;;;;;;2.59;100.00;95887.94;10889829;27;3136;-68
2024/04/18 22:01:23;;;;;;;;;;;;;;;2.60;100.00;95878.97;10877337;27;2926;-70
2024/04/18 22:06:29;;;;;;;;;;;;;;;2.68;100.00;95881.34;10886984;27;3009;-69
2024/04/18 22:11:33;;;;;;;;;;;;;;;2.74;100.00;95878.84;10883240;27;3129;-70
2024/04/18 22:16:37;;;;;;;;;;;;;;;2.82;100.00;95874.03;10886577;27;3635;-71
2024/04/18 22:21:42;;;;;;;;;;;;;;;2.88;100.00;95864.38;10881716;27;3042;-69
2024/04/18 22:26:47;;;;;;;;;;;;;;;2.97;100.00;95863.03;10880943;27;3120;-69
2024/04/18 22:31:52;;;;;;;;;;;;;;;3.10;100.00;95868.16;10878597;27;3126;-70
2024/04/18 22:36:56;;;;;;;;;;;;;;;3.13;100.00;95862.41;10875832;27;3200;-69
2024/04/18 22:42:00;;;;;;;;;;;;;;;3.11;100.00;95856.50;10883724;27;3077;-68
2024/04/18 22:47:05;;;;;;;;;;;;;;;3.14;100.00;95858.72;10881866;27;3026;-70
2024/04/18 22:52:10;;;;;;;;;;;;;;;3.12;100.00;95844.84;10852486;27;2994;-71
2024/04/18 22:57:14;;;;;;;;;;;;;;;3.05;100.00;95849.41;10883684;27;3235;-69
2024/04/18 23:02:19;;;;;;;;;;;;;;;3.08;100.00;95849.00;10879659;27;3132;-69
2024/04/18 23:07:23;;;;;;;;;;;;;;;3.10;100.00;95841.59;10878472;27;3402;-70
2024/04/18 23:12:27;;;;;;;;;;;;;;;3.14;100.00;95847.28;10884939;27;3121;-69
2024/04/18 23:17:32;;;;;;;;;;;;;;;3.13;100.00;95846.47;10877316;27;3014;-68
2024/04/18 23:22:37;;;;;;;;;;;;;;;3.14;100.00;95842.78;10874665;27;3026;-69
2024/04/18 23:27:41;;;;;;;;;;;;;;;3.08;100.00;95843.69;10873824;27;3227;-70
2024/04/18 23:32:45;;;;;;;;;;;;;;;3.14;100.00;95840.13;10847951;27;3239;-69
2024/04/18 23:37:50;;;;;;;;;;;;;;;3.21;100.00;95840.03;10880329;27;3029;-70
2024/04/18 23:42:55;;;;;;;;;;;;;;;3.31;100.00;95835.00;10886275;27;3086;-69
2024/04/18 23:47:59;;;;;;;;;;;;;;;3.31;100.00;95839.47;10883739;27;3473;-69
2024/04/18 23:53:04;;;;;;;;;;;;;;;3.34;100.00;95845.16;10882577;27;3213;-69
2024/04/18 23:58:08;;;;;;;;;;;;;;;3.45;100.00;95839.06;10870692;27;3145;-69
